Time;durP1;ratioP1;P1;durP2;ratioP2;P2;SDS_P1;SDS_P2;PMS_P1;PMS_P2;Temp;Humidity;BMP_temperature;BMP_pressure;BME280_temperature;BME280_humidity;BME280_pressure;Samples;Min_cycle;Max_cycle;Signal;HPM_P1;HPM_P2
2021/12/02 00:01:11;;;;;;;;;7.75;2.00;;;;;9.66;62.51;100209.34;5021410;28;45592;-88
2021/12/02 00:03:38;;;;;;;;;3.75;3.75;;;;;9.64;62.63;100202.44;5020442;28;45343;-88
2021/12/02 00:06:08;;;;;;;;;5.00;3.00;;;;;9.63;62.88;100198.97;5021353;28;45594;-88
2021/12/02 00:08:34;;;;;;;;;4.25;3.00;;;;;9.59;62.44;100197.38;5010638;28;46763;-88
2021/12/02 00:10:59;;;;;;;;;4.75;3.50;;;;;9.59;63.06;100204.38;5018208;28;45232;-88
2021/12/02 00:13:27;;;;;;;;;3.00;2.50;;;;;9.55;62.95;100203.66;5011913;28;45395;-88
2021/12/02 00:21:03;;;;;;;;;2.50;2.00;;;;;9.49;63.07;100206.50;5012239;28;45599;-86
2021/12/02 00:23:29;;;;;;;;;4.50;2.25;;;;;9.50;62.95;100209.06;5016000;28;45518;-88
2021/12/02 00:25:58;;;;;;;;;5.25;3.00;;;;;9.47;63.07;100197.81;5020524;28;45502;-89
2021/12/02 00:28:25;;;;;;;;;3.50;2.50;;;;;9.40;63.13;100200.69;5020519;28;45299;-88
2021/12/02 00:30:53;;;;;;;;;3.25;3.25;;;;;9.39;63.22;100211.22;5021031;28;45386;-86
2021/12/02 00:33:19;;;;;;;;;5.00;3.25;;;;;9.38;62.96;100220.03;5017515;28;45597;-86
2021/12/02 00:35:46;;;;;;;;;3.00;3.00;;;;;9.33;63.44;100220.19;5010963;28;45351;-86
2021/12/02 00:38:11;;;;;;;;;2.00;2.00;;;;;9.34;63.38;100221.88;5017054;28;46529;-86
2021/12/02 00:40:37;;;;;;;;;5.00;4.00;;;;;9.33;63.54;100228.06;5019852;28;46612;-87
2021/12/02 00:43:03;;;;;;;;;3.50;3.50;;;;;9.31;63.79;100227.25;5007382;28;45360;-86
2021/12/02 00:45:28;;;;;;;;;3.00;3.00;;;;;9.30;63.15;100234.28;5007548;28;45222;-87
2021/12/02 00:47:54;;;;;;;;;4.00;2.50;;;;;9.29;63.73;100239.53;5020218;28;46339;-87
2021/12/02 00:50:20;;;;;;;;;2.50;2.50;;;;;9.26;63.63;100232.66;5018494;28;45473;-87
2021/12/02 00:52:47;;;;;;;;;4.25;2.25;;;;;9.28;64.07;100236.09;5017743;28;45967;-87
2021/12/02 00:55:13;;;;;;;;;3.50;3.00;;;;;9.30;63.81;100241.28;5018131;28;45964;-87
2021/12/02 00:57:39;;;;;;;;;4.25;3.00;;;;;9.36;63.69;100240.22;5020529;28;45355;-88
2021/12/02 01:00:05;;;;;;;;;4.25;4.00;;;;;9.32;63.64;100247.31;5019385;28;45323;-87
2021/12/02 01:02:34;;;;;;;;;3.00;3.00;;;;;9.35;63.72;100252.47;5020744;28;45228;-83
2021/12/02 01:05:00;;;;;;;;;3.75;3.00;;;;;9.37;64.31;100252.41;5020157;28;45552;-83
2021/12/02 01:07:26;;;;;;;;;6.75;2.50;;;;;9.41;64.09;100257.47;5020770;28;45562;-93
2021/12/02 01:09:52;;;;;;;;;3.00;2.75;;;;;9.44;64.10;100254.75;5017050;28;45594;-93
2021/12/02 01:12:18;;;;;;;;;4.75;4.00;;;;;9.45;64.44;100256.47;5013979;28;45338;-94
2021/12/02 01:14:44;;;;;;;;;8.25;3.50;;;;;9.52;64.46;100264.09;4999727;28;46437;-93
2021/12/02 01:17:10;;;;;;;;;3.50;3.50;;;;;9.51;64.39;100251.88;5013733;28;48231;-92
2021/12/02 01:19:35;;;;;;;;;4.25;3.00;;;;;9.50;64.26;100247.56;5015674;28;45273;-91
2021/12/02 01:22:02;;;;;;;;;5.00;3.25;;;;;9.48;64.46;100258.13;5027857;28;45256;-91
2021/12/02 01:24:29;;;;;;;;;5.75;3.25;;;;;9.50;64.45;100265.94;5018432;28;47021;-91
2021/12/02 01:26:55;;;;;;;;;3.00;3.00;;;;;9.48;64.31;100271.25;5015574;28;47583;-91
2021/12/02 01:29:23;;;;;;;;;5.00;5.00;;;;;9.48;64.76;100259.88;5023004;28;45308;-91
2021/12/02 01:31:52;;;;;;;;;4.75;4.75;;;;;9.48;64.83;100262.50;5015910;28;45591;-92
2021/12/02 01:34:22;;;;;;;;;5.75;5.75;;;;;9.46;64.48;100267.78;5031260;28;46218;-91
2021/12/02 01:36:51;;;;;;;;;5.25;5.25;;;;;9.43;64.89;100266.13;5009913;28;45757;-92
2021/12/02 01:39:17;;;;;;;;;6.50;4.75;;;;;9.42;64.77;100274.94;5015635;28;45311;-88
2021/12/02 01:42:00;;;;;;;;;6.25;4.75;;;;;9.46;64.73;100280.91;5017774;28;45351;-89
2021/12/02 01:44:27;;;;;;;;;4.75;4.00;;;;;9.51;64.77;100278.13;5015722;28;45554;-87
2021/12/02 01:46:57;;;;;;;;;5.75;4.75;;;;;9.52;64.73;100278.09;5019720;28;46136;-88
2021/12/02 01:49:27;;;;;;;;;9.00;7.75;;;;;9.54;64.49;100283.25;5015695;28;45976;-89
2021/12/02 01:51:55;;;;;;;;;9.00;7.00;;;;;9.53;64.54;100281.56;5019907;28;45225;-89
2021/12/02 01:54:23;;;;;;;;;7.50;7.00;;;;;9.56;64.65;100286.69;5019288;28;45494;-88
2021/12/02 01:57:04;;;;;;;;;6.50;5.00;;;;;9.56;64.34;100305.06;5005178;28;48495;-87
2021/12/02 01:59:35;;;;;;;;;5.75;5.75;;;;;9.51;64.69;100305.22;5014219;28;45743;-88
2021/12/02 02:02:07;;;;;;;;;7.50;7.25;;;;;9.48;64.54;100299.25;5019542;28;45484;-87
2021/12/02 02:04:32;;;;;;;;;6.00;6.00;;;;;9.45;64.41;100305.44;5015249;28;46004;-87
2021/12/02 02:07:11;;;;;;;;;8.50;7.00;;;;;9.37;64.20;100304.84;5017194;28;46792;-88
2021/12/02 02:09:37;;;;;;;;;7.25;6.00;;;;;9.30;65.08;100314.72;5013610;28;45713;-88
2021/12/02 02:12:08;;;;;;;;;12.75;8.50;;;;;9.23;65.06;100319.31;5015223;28;45391;-87
2021/12/02 02:14:34;;;;;;;;;7.00;6.75;;;;;9.24;64.88;100315.75;5017850;28;46062;-85
2021/12/02 02:17:01;;;;;;;;;7.25;7.25;;;;;9.20;65.13;100322.91;5017835;28;47908;-84
2021/12/02 02:19:31;;;;;;;;;7.50;7.50;;;;;9.18;65.09;100322.09;5011338;28;45384;-85
2021/12/02 02:21:57;;;;;;;;;8.25;7.00;;;;;9.18;65.17;100326.47;5013375;28;45424;-85
2021/12/02 02:24:24;;;;;;;;;8.25;6.50;;;;;9.21;65.43;100324.59;5019014;28;45419;-87
2021/12/02 02:26:50;;;;;;;;;5.50;5.50;;;;;9.23;65.16;100335.88;5018740;28;46403;-83
2021/12/02 02:29:18;;;;;;;;;7.00;6.00;;;;;9.21;64.83;100331.63;5016494;28;45312;-85
2021/12/02 02:31:44;;;;;;;;;8.75;7.25;;;;;9.23;65.13;100341.13;5010163;28;45454;-84
2021/12/02 02:34:10;;;;;;;;;6.50;6.00;;;;;9.21;64.92;100348.19;5018812;28;45389;-87
2021/12/02 02:36:40;;;;;;;;;9.00;6.75;;;;;9.17;65.05;100337.84;5017982;28;45324;-86
2021/12/02 02:39:06;;;;;;;;;5.75;5.75;;;;;9.16;64.69;100344.88;5013711;28;45445;-88
2021/12/02 02:41:37;;;;;;;;;5.00;5.00;;;;;9.18;64.83;100343.06;5009685;28;45253;-88
2021/12/02 02:44:04;;;;;;;;;3.25;3.00;;;;;9.14;64.60;100349.31;5004655;28;45324;-89
2021/12/02 02:46:35;;;;;;;;;6.25;5.00;;;;;9.14;64.41;100354.56;5018948;28;46291;-84
2021/12/02 02:49:04;;;;;;;;;4.25;3.00;;;;;9.14;64.67;100354.56;5018790;28;45493;-82
2021/12/02 02:51:31;;;;;;;;;7.50;4.00;;;;;9.18;64.21;100360.56;5018481;28;45568;-82
2021/12/02 02:54:03;;;;;;;;;4.25;4.25;;;;;9.22;64.12;100364.78;5013908;28;45468;-82
2021/12/02 02:56:31;;;;;;;;;4.50;4.00;;;;;9.19;64.39;100359.63;5021948;28;46231;-79
2021/12/02 03:09:08;;;;;;;;;4.50;3.00;;;;;9.15;64.05;100369.38;5021396;28;45359;-87
2021/12/02 03:11:43;;;;;;;;;3.75;3.50;;;;;9.14;63.57;100367.66;5015704;28;45304;-86
2021/12/02 03:14:16;;;;;;;;;6.00;4.75;;;;;9.10;64.11;100363.44;5011964;28;45379;-87
2021/12/02 03:16:45;;;;;;;;;6.00;4.00;;;;;9.10;63.84;100371.31;5017088;28;48046;-87
2021/12/02 03:19:12;;;;;;;;;4.75;4.50;;;;;9.10;63.85;100379.16;5013769;28;45217;-87
2021/12/02 03:21:38;;;;;;;;;5.75;5.00;;;;;9.11;63.83;100383.50;5008647;28;45287;-86
2021/12/02 03:24:04;;;;;;;;;0.50;0.50;;;;;9.06;63.67;100377.56;5013978;28;45347;-83
2021/12/02 03:26:30;;;;;;;;;5.00;5.00;;;;;9.04;63.66;100379.38;5008086;28;45263;-84
2021/12/02 03:28:55;;;;;;;;;3.50;3.50;;;;;8.98;63.60;100386.53;5017204;28;45331;-86
2021/12/02 03:31:22;;;;;;;;;4.00;3.00;;;;;8.96;64.04;100387.50;5025615;28;45311;-85
2021/12/02 03:33:47;;;;;;;;;3.00;3.00;;;;;8.95;63.40;100404.97;5021151;28;45364;-86
2021/12/02 03:36:15;;;;;;;;;3.25;3.25;;;;;8.93;63.41;100393.69;5020605;28;45428;-85
2021/12/02 03:38:42;;;;;;;;;2.25;2.00;;;;;8.91;63.05;100395.50;5008482;28;45463;-85
2021/12/02 03:41:08;;;;;;;;;4.25;2.50;;;;;8.88;63.01;100395.59;5020811;28;45466;-83
2021/12/02 03:43:41;;;;;;;;;3.50;1.75;;;;;8.86;62.77;100392.16;5021241;28;45308;-82
2021/12/02 03:46:08;;;;;;;;;1.00;1.00;;;;;8.87;62.58;100396.47;5021740;28;45638;-82
2021/12/02 03:48:36;;;;;;;;;2.75;1.75;;;;;8.84;62.94;100397.44;5021649;28;45579;-85
2021/12/02 03:51:02;;;;;;;;;1.00;1.00;;;;;8.86;62.47;100397.41;5015807;28;45481;-84
2021/12/02 03:53:27;;;;;;;;;2.00;2.00;;;;;8.86;62.71;100408.75;5014000;28;45327;-86
2021/12/02 03:55:53;;;;;;;;;2.25;1.50;;;;;8.84;62.52;100412.31;5021132;28;46237;-86
2021/12/02 03:58:18;;;;;;;;;0.75;0.50;;;;;8.80;61.60;100418.53;5021408;28;45377;-85
2021/12/02 04:00:44;;;;;;;;;1.00;1.00;;;;;8.71;61.88;100415.31;5019002;28;45264;-84
2021/12/02 04:03:09;;;;;;;;;1.75;1.50;;;;;8.66;62.06;100419.84;5018045;28;46241;-90
2021/12/02 04:05:34;;;;;;;;;4.25;0.75;;;;;8.64;61.80;100429.50;5034475;28;47161;-89
2021/12/02 04:08:00;;;;;;;;;2.75;0.75;;;;;8.59;61.52;100420.94;5021367;28;45311;-89
2021/12/02 04:10:26;;;;;;;;;1.00;1.00;;;;;8.57;62.29;100422.72;5019811;28;45412;-90
2021/12/02 04:13:03;;;;;;;;;1.25;1.00;;;;;8.55;62.32;100428.84;5027666;28;46092;-85
2021/12/02 04:15:39;;;;;;;;;2.50;0.00;;;;;8.57;61.95;100428.78;5020312;28;46404;-84
2021/12/02 04:18:05;;;;;;;;;1.00;1.00;;;;;8.55;62.37;100426.22;5020987;28;45517;-86
2021/12/02 04:20:31;;;;;;;;;1.50;1.00;;;;;8.59;61.87;100428.78;5019956;28;45319;-85
2021/12/02 04:22:57;;;;;;;;;2.25;1.00;;;;;8.55;61.71;100422.72;5020915;28;45165;-86
2021/12/02 04:25:23;;;;;;;;;0.75;0.75;;;;;8.51;61.15;100429.84;5019476;28;46668;-85
2021/12/02 04:27:50;;;;;;;;;3.50;2.00;;;;;8.53;61.26;100427.16;5020627;28;45647;-85
2021/12/02 04:30:20;;;;;;;;;0.75;0.75;;;;;8.50;59.80;100433.34;5016379;28;45252;-85
2021/12/02 04:32:46;;;;;;;;;1.50;1.50;;;;;8.47;60.19;100436.03;5011835;28;46194;-84
2021/12/02 04:35:12;;;;;;;;;3.00;1.00;;;;;8.47;60.42;100443.91;5007920;28;46279;-86
2021/12/02 04:37:39;;;;;;;;;2.00;1.00;;;;;8.42;59.60;100449.28;5017958;28;45244;-85
2021/12/02 04:40:06;;;;;;;;;1.25;1.00;;;;;8.39;59.25;100465.09;5010648;28;45237;-86
2021/12/02 04:42:31;;;;;;;;;4.75;2.00;;;;;8.30;57.24;100466.19;5004991;28;45521;-86
2021/12/02 04:44:57;;;;;;;;;4.50;1.00;;;;;8.26;58.61;100461.97;5015210;28;47246;-87
2021/12/02 04:47:23;;;;;;;;;0.00;0.00;;;;;8.24;58.66;100474.25;5016092;28;45422;-84
2021/12/02 04:49:48;;;;;;;;;1.25;1.25;;;;;8.26;59.58;100482.03;5014063;28;45676;-84
2021/12/02 04:52:13;;;;;;;;;0.25;0.25;;;;;8.19;58.74;100471.75;5020561;28;45468;-84
2021/12/02 04:54:39;;;;;;;;;5.00;2.00;;;;;8.12;57.47;100479.81;5018977;28;45506;-87
2021/12/02 04:57:05;;;;;;;;;3.00;1.00;;;;;8.08;59.11;100492.97;5020466;28;45401;-84
2021/12/02 04:59:30;;;;;;;;;2.50;1.00;;;;;8.07;58.84;100498.25;5018518;28;45276;-84
2021/12/02 05:01:55;;;;;;;;;1.25;1.00;;;;;7.98;59.66;100483.63;5010425;28;45308;-84
2021/12/02 05:04:21;;;;;;;;;2.50;2.50;;;;;7.93;58.95;100493.38;5012091;28;45372;-85
2021/12/02 05:06:46;;;;;;;;;2.75;1.00;;;;;7.83;59.37;100495.34;5020280;28;45257;-84
2021/12/02 05:09:12;;;;;;;;;1.75;1.25;;;;;7.80;59.96;100512.03;5019881;28;45245;-86
2021/12/02 05:11:38;;;;;;;;;1.75;1.75;;;;;7.72;59.87;100503.50;5017589;28;45334;-85
2021/12/02 05:14:05;;;;;;;;;1.00;0.75;;;;;7.69;60.24;100504.44;5017016;28;46593;-87
2021/12/02 05:16:31;;;;;;;;;2.25;2.00;;;;;7.72;60.27;100503.50;5020182;28;45162;-83
2021/12/02 05:18:56;;;;;;;;;1.50;1.00;;;;;7.71;60.20;100512.22;5020265;28;45394;-85
2021/12/02 05:21:22;;;;;;;;;4.75;1.75;;;;;7.69;60.10;100512.28;5020183;28;45375;-81
2021/12/02 05:23:53;;;;;;;;;2.50;1.50;;;;;7.71;59.75;100522.69;5008524;28;45467;-81
2021/12/02 05:26:18;;;;;;;;;2.75;1.75;;;;;7.63;60.19;100530.75;5019848;28;45162;-87
2021/12/02 05:28:43;;;;;;;;;2.00;1.00;;;;;7.56;60.15;100500.38;5019829;28;45416;-87
2021/12/02 05:31:09;;;;;;;;;4.75;1.50;;;;;7.58;60.12;100514.31;5020113;28;45502;-92
2021/12/02 05:33:34;;;;;;;;;5.00;1.25;;;;;7.54;59.86;100519.59;5017839;28;46186;-90
2021/12/02 05:36:00;;;;;;;;;2.00;2.00;;;;;7.52;60.25;100520.53;5017884;28;45257;-93
2021/12/02 05:38:25;;;;;;;;;3.25;1.50;;;;;7.51;60.17;100535.34;5007217;28;45213;-90
2021/12/02 05:40:50;;;;;;;;;4.25;3.00;;;;;7.48;60.24;100531.97;5012217;28;46355;-82
2021/12/02 05:43:16;;;;;;;;;2.00;1.75;;;;;7.45;60.45;100530.28;5001081;28;45642;-83
2021/12/02 05:45:41;;;;;;;;;1.00;1.00;;;;;7.44;59.92;100533.78;5013447;28;45351;-85
2021/12/02 05:48:07;;;;;;;;;2.75;2.75;;;;;7.41;60.68;100532.09;5019942;28;45803;-89
2021/12/02 05:50:32;;;;;;;;;2.50;2.25;;;;;7.43;60.02;100530.28;5017846;28;45686;-88
2021/12/02 05:52:57;;;;;;;;;1.00;1.00;;;;;7.44;60.50;100528.56;5017358;28;45386;-84
2021/12/02 05:55:23;;;;;;;;;1.00;1.00;;;;;7.39;59.98;100525.19;5019537;28;45351;-84
2021/12/02 05:57:48;;;;;;;;;2.00;2.00;;;;;7.37;60.28;100538.31;5019488;28;45340;-88
2021/12/02 06:00:14;;;;;;;;;3.00;3.00;;;;;7.36;60.37;100535.72;5016037;28;45215;-88
2021/12/02 06:02:40;;;;;;;;;3.00;2.00;;;;;7.34;60.12;100535.75;5019339;28;45480;-88
2021/12/02 06:05:06;;;;;;;;;1.50;1.50;;;;;7.36;60.15;100548.81;5019082;28;45311;-90
2021/12/02 06:07:32;;;;;;;;;5.00;3.25;;;;;7.31;60.39;100541.91;5018327;28;45251;-84
2021/12/02 06:09:58;;;;;;;;;3.50;2.00;;;;;7.32;60.52;100535.78;5018267;28;45390;-84
2021/12/02 06:12:23;;;;;;;;;3.50;3.00;;;;;7.35;60.29;100542.72;5018998;28;45394;-84
2021/12/02 06:14:49;;;;;;;;;3.00;2.00;;;;;7.30;60.55;100544.56;5006610;28;45403;-84
2021/12/02 06:17:15;;;;;;;;;6.00;4.75;;;;;7.26;60.00;100551.59;5018595;28;45434;-83
2021/12/02 06:19:40;;;;;;;;;4.75;3.00;;;;;7.24;60.63;100565.59;5010596;28;45214;-83
2021/12/02 06:22:08;;;;;;;;;3.00;3.00;;;;;7.25;60.37;100559.50;5019241;28;46349;-83
2021/12/02 06:24:43;;;;;;;;;4.25;2.25;;;;;7.24;60.67;100553.41;5018004;28;45367;-86
2021/12/02 06:27:09;;;;;;;;;3.25;3.25;;;;;7.26;60.95;100564.66;5016543;28;45415;-84
2021/12/02 06:29:35;;;;;;;;;5.50;3.25;;;;;7.27;60.66;100569.03;5022841;28;45383;-82
2021/12/02 06:32:00;;;;;;;;;5.00;2.75;;;;;7.27;60.87;100562.94;5022605;28;45345;-82
2021/12/02 06:34:26;;;;;;;;;3.50;3.00;;;;;7.23;60.74;100562.16;5020680;28;45434;-80
2021/12/02 06:36:51;;;;;;;;;5.50;2.25;;;;;7.23;60.59;100563.91;5017213;28;45471;-81
2021/12/02 06:39:16;;;;;;;;;3.75;2.50;;;;;7.23;60.49;100561.28;5008679;28;46135;-82
2021/12/02 06:41:42;;;;;;;;;4.00;2.00;;;;;7.18;61.12;100557.03;5018317;28;45423;-81
2021/12/02 06:44:07;;;;;;;;;2.00;2.00;;;;;7.18;60.64;100551.78;5022786;28;45264;-81
2021/12/02 06:46:33;;;;;;;;;3.00;1.00;;;;;7.16;60.70;100557.94;5018587;28;45966;-81
2021/12/02 06:48:58;;;;;;;;;5.00;3.25;;;;;7.14;60.48;100557.97;5020086;28;45427;-84
2021/12/02 06:51:24;;;;;;;;;2.00;2.00;;;;;7.16;60.66;100571.84;5019049;28;46880;-80
2021/12/02 06:53:49;;;;;;;;;3.00;2.00;;;;;7.14;60.38;100576.25;5018122;28;45378;-80
2021/12/02 06:56:16;;;;;;;;;4.25;3.00;;;;;7.13;60.85;100582.41;5015791;28;45221;-80
2021/12/02 06:58:41;;;;;;;;;3.25;2.00;;;;;7.12;60.47;100583.28;5022304;28;45482;-80
2021/12/02 07:01:06;;;;;;;;;3.00;3.00;;;;;7.08;60.79;100595.56;5022207;28;45578;-80
2021/12/02 07:03:32;;;;;;;;;5.25;3.50;;;;;7.06;60.30;100599.09;5022030;28;45549;-81
2021/12/02 07:05:57;;;;;;;;;1.25;1.25;;;;;7.07;60.36;100611.25;5021524;28;45423;-80
2021/12/02 07:08:23;;;;;;;;;4.00;3.00;;;;;7.05;60.23;100613.03;5022090;28;45466;-80
2021/12/02 07:10:50;;;;;;;;;2.50;2.50;;;;;7.01;60.41;100617.50;5017216;28;45320;-80
2021/12/02 07:13:15;;;;;;;;;5.75;4.25;;;;;7.03;60.62;100631.38;5017527;28;45264;-80
2021/12/02 07:15:44;;;;;;;;;2.25;1.50;;;;;7.01;60.00;100634.91;5009996;28;45447;-80
2021/12/02 07:18:13;;;;;;;;;5.75;3.75;;;;;6.99;60.16;100640.16;5011518;28;47169;-80
2021/12/02 07:20:39;;;;;;;;;6.00;4.00;;;;;7.01;60.38;100646.25;5018691;28;46224;-80
2021/12/02 07:23:04;;;;;;;;;2.75;2.00;;;;;7.00;60.32;100639.28;5013690;28;46829;-80
2021/12/02 07:25:30;;;;;;;;;3.00;1.50;;;;;7.01;60.34;100651.47;5029965;28;45471;-79
2021/12/02 07:27:56;;;;;;;;;3.00;2.00;;;;;7.00;59.34;100649.72;5021087;28;45268;-80
2021/12/02 07:30:22;;;;;;;;;3.25;2.00;;;;;6.96;59.26;100646.31;5011653;28;48008;-80
2021/12/02 07:32:52;;;;;;;;;5.25;1.00;;;;;6.92;59.60;100649.88;5017727;28;45274;-79
2021/12/02 07:35:18;;;;;;;;;4.00;2.00;;;;;6.91;59.36;100652.53;5018993;28;45546;-79
2021/12/02 07:37:46;;;;;;;;;6.75;4.00;;;;;6.90;59.56;100650.78;5019797;28;45296;-79
2021/12/02 07:40:13;;;;;;;;;3.50;2.00;;;;;6.87;58.94;100662.16;5021431;28;46250;-79
2021/12/02 07:42:39;;;;;;;;;3.00;2.75;;;;;6.86;59.33;100663.06;5021548;28;45666;-79
2021/12/02 07:45:06;;;;;;;;;3.00;1.50;;;;;6.86;59.96;100660.44;5019392;28;45221;-78
2021/12/02 07:47:34;;;;;;;;;4.75;2.75;;;;;6.83;59.04;100665.72;5021189;28;45423;-79
2021/12/02 07:50:00;;;;;;;;;2.00;2.00;;;;;6.80;59.80;100657.94;5019178;28;47374;-79
2021/12/02 07:52:26;;;;;;;;;3.00;2.00;;;;;6.80;59.39;100640.53;5015958;28;45608;-78
2021/12/02 07:54:57;;;;;;;;;3.00;3.00;;;;;6.82;59.31;100650.94;5020883;28;45390;-78
2021/12/02 07:57:22;;;;;;;;;3.50;2.00;;;;;6.82;59.48;100653.53;5007989;28;46201;-78
2021/12/02 07:59:50;;;;;;;;;3.75;3.00;;;;;6.84;59.64;100670.91;5002106;28;47148;-78
2021/12/02 08:02:16;;;;;;;;;1.25;1.00;;;;;6.88;59.66;100678.69;5014342;28;46370;-79
2021/12/02 08:04:42;;;;;;;;;3.00;2.25;;;;;6.90;59.43;100671.69;5012380;28;45287;-78
2021/12/02 08:07:07;;;;;;;;;3.75;3.75;;;;;6.92;58.76;100662.94;5016388;28;45888;-78
2021/12/02 08:09:33;;;;;;;;;5.50;3.00;;;;;6.93;59.33;100672.50;5003452;28;46308;-78
2021/12/02 08:11:59;;;;;;;;;2.00;2.00;;;;;6.96;59.26;100674.22;5014463;28;45282;-78
2021/12/02 08:14:25;;;;;;;;;3.50;2.25;;;;;7.00;59.01;100688.06;5016217;28;45419;-78
2021/12/02 08:16:51;;;;;;;;;4.75;2.25;;;;;7.05;59.45;100675.78;5014338;28;45905;-78
2021/12/02 08:19:17;;;;;;;;;6.00;2.75;;;;;7.11;59.34;100690.47;5017853;28;45992;-78
2021/12/02 08:21:42;;;;;;;;;3.00;2.50;;;;;7.14;59.05;100690.41;5021228;28;45328;-78
2021/12/02 08:24:08;;;;;;;;;3.00;3.00;;;;;7.16;59.00;100686.88;5018564;28;45301;-78
2021/12/02 08:26:34;;;;;;;;;5.00;3.50;;;;;7.16;58.70;100683.41;5020600;28;45462;-78
2021/12/02 08:29:00;;;;;;;;;4.00;2.00;;;;;7.16;59.40;100694.72;5020745;28;46054;-78
2021/12/02 08:31:26;;;;;;;;;3.00;2.00;;;;;7.16;58.39;100694.72;5021046;28;45686;-78
2021/12/02 08:33:53;;;;;;;;;4.50;2.50;;;;;7.18;58.56;100707.78;5011284;28;45237;-78
2021/12/02 08:36:22;;;;;;;;;2.50;2.25;;;;;7.19;59.06;100704.25;5016649;28;45534;-78
2021/12/02 08:38:48;;;;;;;;;2.00;2.00;;;;;7.24;59.22;100714.63;5020946;28;46317;-78
2021/12/02 08:41:17;;;;;;;;;3.50;3.50;;;;;7.24;59.15;100706.78;5014688;28;45403;-81
2021/12/02 08:43:43;;;;;;;;;1.50;1.50;;;;;7.19;58.51;100705.13;5020467;28;45408;-81
2021/12/02 08:46:08;;;;;;;;;2.00;1.25;;;;;7.13;58.19;100710.47;5015526;28;45197;-81
2021/12/02 08:48:33;;;;;;;;;3.75;3.50;;;;;7.08;58.38;100713.19;5015893;28;47521;-80
2021/12/02 08:50:59;;;;;;;;;1.25;1.25;;;;;7.09;58.67;100727.09;5015633;28;45441;-80
2021/12/02 08:53:24;;;;;;;;;2.00;2.00;;;;;7.12;59.11;100713.09;5018854;28;45283;-80
2021/12/02 08:55:50;;;;;;;;;2.00;2.00;;;;;7.09;58.62;100714.88;5011580;28;46498;-81
2021/12/02 08:58:16;;;;;;;;;2.50;1.50;;;;;7.05;59.40;100720.19;5018113;28;45405;-80
2021/12/02 09:00:41;;;;;;;;;3.75;2.75;;;;;7.05;59.14;100718.47;5014233;28;45652;-78
2021/12/02 09:03:09;;;;;;;;;4.25;3.75;;;;;7.07;59.09;100739.31;5015583;28;45232;-78
2021/12/02 09:05:36;;;;;;;;;3.00;1.00;;;;;7.06;59.27;100724.56;5015218;28;45319;-78
2021/12/02 09:08:01;;;;;;;;;5.00;2.25;;;;;7.08;59.55;100738.44;5020125;28;45315;-78
2021/12/02 09:10:27;;;;;;;;;3.00;2.25;;;;;7.09;59.47;100740.16;5017826;28;46095;-78
2021/12/02 09:12:53;;;;;;;;;4.25;2.00;;;;;7.11;58.83;100742.75;5014830;28;45259;-78
2021/12/02 09:15:19;;;;;;;;;3.25;1.25;;;;;7.09;59.49;100741.03;5015681;28;46010;-78
2021/12/02 09:17:45;;;;;;;;;6.75;5.00;;;;;7.11;59.05;100748.00;5013137;28;47378;-78
2021/12/02 09:20:15;;;;;;;;;4.75;3.00;;;;;7.16;59.42;100762.69;5019138;28;45243;-78
2021/12/02 09:22:44;;;;;;;;;5.75;3.00;;;;;7.17;59.07;100761.81;5018850;28;45328;-78
2021/12/02 09:25:11;;;;;;;;;3.25;2.00;;;;;7.21;59.01;100757.38;5014435;28;45417;-80
2021/12/02 09:27:37;;;;;;;;;5.25;4.75;;;;;7.25;59.04;100763.41;5008792;28;45465;-78
2021/12/02 09:30:04;;;;;;;;;5.00;2.00;;;;;7.30;59.04;100775.53;5031357;28;45490;-78
2021/12/02 09:32:30;;;;;;;;;3.00;1.00;;;;;7.34;59.46;100776.31;5011067;28;45363;-78
2021/12/02 09:34:56;;;;;;;;;4.00;2.50;;;;;7.39;58.79;100771.00;5017005;28;45265;-77
2021/12/02 09:37:21;;;;;;;;;3.00;2.25;;;;;7.44;58.99;100782.22;5019837;28;46143;-77
2021/12/02 09:39:46;;;;;;;;;5.00;3.00;;;;;7.48;58.83;100772.59;5009058;28;45236;-77
2021/12/02 09:42:13;;;;;;;;;4.00;3.00;;;;;7.53;59.22;100783.81;5032269;28;45440;-76
2021/12/02 09:44:40;;;;;;;;;4.75;3.00;;;;;7.56;59.10;100782.88;5018250;28;47306;-78
2021/12/02 09:47:06;;;;;;;;;5.00;2.00;;;;;7.61;58.65;100783.63;5006401;28;46234;-79
2021/12/02 09:49:32;;;;;;;;;4.25;3.00;;;;;7.63;58.57;100780.09;5013612;28;45323;-80
2021/12/02 09:54:31;;;;;;;;;3.00;3.00;;;;;7.72;58.40;100786.06;5016384;28;45430;-79
2021/12/02 09:57:00;;;;;;;;;4.25;3.00;;;;;7.72;57.83;100786.06;5006639;28;46331;-79
2021/12/02 09:59:34;;;;;;;;;2.00;2.00;;;;;7.73;58.04;100791.25;5002496;28;45793;-80
2021/12/02 10:02:08;;;;;;;;;5.50;4.00;;;;;7.78;58.00;100804.22;5005652;28;45254;-79
2021/12/02 10:04:42;;;;;;;;;2.00;2.00;;;;;7.75;57.53;100802.53;5014986;28;46045;-80
2021/12/02 10:10:02;;;;;;;;;4.00;2.00;;;;;7.75;57.80;100801.72;5018589;28;45660;-79
2021/12/02 10:12:29;;;;;;;;;2.00;2.00;;;;;7.78;57.25;100812.09;5016494;28;45446;-79
2021/12/02 10:14:59;;;;;;;;;3.00;3.00;;;;;7.82;56.90;100805.91;5018936;28;46073;-80
2021/12/02 10:17:36;;;;;;;;;2.50;1.00;;;;;7.79;56.87;100805.09;5029279;28;47166;-80
2021/12/02 10:20:14;;;;;;;;;2.75;2.00;;;;;7.77;57.23;100802.53;5014960;28;45695;-80
2021/12/02 10:22:45;;;;;;;;;2.25;1.00;;;;;7.76;56.29;100806.91;5005773;28;45607;-80
2021/12/02 10:25:10;;;;;;;;;6.75;2.00;;;;;7.73;56.17;100798.25;5018428;28;45269;-80
2021/12/02 10:27:36;;;;;;;;;3.00;1.00;;;;;7.75;56.28;100797.31;5013475;28;46974;-77
2021/12/02 10:30:23;;;;;;;;;1.75;1.75;;;;;7.75;55.88;100799.09;5027346;28;45588;-80
2021/12/02 10:32:51;;;;;;;;;3.00;3.00;;;;;7.77;56.85;100810.38;5014282;28;45383;-80
2021/12/02 10:35:17;;;;;;;;;2.00;2.00;;;;;7.79;56.03;100795.50;5011874;28;45360;-80
2021/12/02 10:37:43;;;;;;;;;2.50;2.00;;;;;7.81;56.11;100798.94;5014654;28;47345;-80
2021/12/02 10:40:12;;;;;;;;;5.00;2.00;;;;;7.81;55.36;100801.56;5012814;28;45238;-80
2021/12/02 10:42:43;;;;;;;;;4.00;1.25;;;;;7.80;56.34;100797.25;5019397;28;45292;-80
2021/12/02 10:45:38;;;;;;;;;1.25;1.25;;;;;7.79;55.15;100798.13;5006030;28;45447;-80
2021/12/02 10:48:03;;;;;;;;;2.00;1.00;;;;;7.78;54.58;100791.16;5006639;28;46417;-80
2021/12/02 10:50:37;;;;;;;;;1.00;1.00;;;;;7.76;54.84;100792.94;5015675;28;45655;-80
2021/12/02 10:53:04;;;;;;;;;2.75;1.00;;;;;7.79;54.48;100786.78;5019360;28;45165;-80
2021/12/02 10:55:31;;;;;;;;;5.50;1.00;;;;;7.80;54.42;100788.53;5008689;28;47420;-80
2021/12/02 10:57:58;;;;;;;;;2.00;1.00;;;;;7.79;54.41;100785.03;5029917;28;48062;-80
2021/12/02 11:00:26;;;;;;;;;2.00;2.00;;;;;7.81;53.21;100798.94;5018921;28;45324;-80
2021/12/02 11:02:56;;;;;;;;;1.75;1.00;;;;;7.80;53.09;100784.16;5014384;28;45230;-80
2021/12/02 11:05:29;;;;;;;;;11.75;9.00;;;;;7.79;54.00;100777.19;5014123;28;46352;-80
2021/12/02 11:08:05;;;;;;;;;39.75;31.75;;;;;7.78;53.02;100774.63;5029577;28;48382;-81
2021/12/02 11:10:43;;;;;;;;;17.75;14.00;;;;;7.78;53.88;100769.38;5015990;28;45427;-80
2021/12/02 11:13:16;;;;;;;;;28.75;22.75;;;;;7.79;53.96;100771.94;5007976;28;45410;-80
2021/12/02 11:15:41;;;;;;;;;3.75;3.00;;;;;7.84;53.35;100779.72;5017558;28;46516;-81
2021/12/02 11:18:10;;;;;;;;;12.75;12.75;;;;;7.86;54.26;100772.69;5014786;28;46320;-80
2021/12/02 11:20:42;;;;;;;;;6.75;6.50;;;;;7.90;53.37;100769.13;5012531;28;45332;-81
2021/12/02 11:23:20;;;;;;;;;7.00;4.00;;;;;7.94;52.89;100767.28;5026450;28;45374;-80
2021/12/02 11:26:06;;;;;;;;;3.00;3.00;;;;;8.04;53.41;100760.09;5010948;28;45514;-79
2021/12/02 11:28:35;;;;;;;;;6.00;4.50;;;;;8.06;53.48;100759.16;5019600;28;45535;-80
2021/12/02 11:31:27;;;;;;;;;4.25;4.25;;;;;8.11;52.66;100774.78;5015243;28;45274;-80
2021/12/02 11:33:52;;;;;;;;;5.00;4.25;;;;;8.10;52.18;100767.81;5010419;28;45635;-80
2021/12/02 11:36:25;;;;;;;;;2.25;2.00;;;;;8.10;52.68;100771.28;5009884;28;46068;-80
2021/12/02 11:38:52;;;;;;;;;4.75;4.75;;;;;8.10;52.65;100779.16;5015842;28;45470;-80
2021/12/02 11:41:19;;;;;;;;;2.25;2.25;;;;;8.08;52.50;100783.56;5012176;28;45764;-81
2021/12/02 11:43:45;;;;;;;;;1.00;1.00;;;;;8.06;52.55;100777.50;5015970;28;45348;-80
2021/12/02 11:46:11;;;;;;;;;2.50;1.00;;;;;7.97;52.98;100777.69;5019609;28;45330;-80
2021/12/02 11:48:42;;;;;;;;;1.50;1.50;;;;;7.92;52.83;100769.94;5021440;28;46196;-80
2021/12/02 11:51:16;;;;;;;;;1.00;1.00;;;;;7.83;51.54;100762.28;5008524;28;45647;-80
2021/12/02 11:53:42;;;;;;;;;2.00;0.00;;;;;7.77;52.33;100773.75;5021340;28;45161;-80
2021/12/02 11:56:14;;;;;;;;;0.00;0.00;;;;;7.70;52.83;100762.56;5021626;28;45270;-80